createdAt,value
2017-10-12T00:01:10.548Z,77.37
2017-10-12T00:03:41.687Z,77.57
2017-10-12T00:06:12.951Z,76.42
2017-10-12T00:08:44.256Z,77.11
2017-10-12T00:11:16.616Z,77.35
2017-10-12T00:13:47.094Z,76.23
2017-10-12T00:16:17.573Z,76.62
2017-10-12T00:18:52.180Z,76.69
2017-10-12T00:21:26.813Z,76.05
2017-10-12T00:23:59.207Z,76.08
2017-10-12T00:26:31.120Z,76.07
2017-10-12T00:29:02.679Z,76.57
2017-10-12T00:31:33.472Z,76.65
2017-10-12T00:34:04.067Z,76.54
2017-10-12T00:36:41.187Z,76.37
2017-10-12T00:39:12.243Z,76.70
2017-10-12T00:41:44.845Z,76.83
2017-10-12T00:44:15.284Z,76.56
2017-10-12T00:46:45.897Z,76.31
2017-10-12T00:49:16.872Z,75.61
2017-10-12T00:51:51.112Z,74.76
2017-10-12T00:54:23.869Z,75.11
2017-10-12T00:56:55.290Z,74.82
2017-10-12T00:59:30.880Z,74.02
2017-10-12T01:02:01.580Z,75.00
2017-10-12T01:04:32.253Z,74.82
2017-10-12T01:07:03.663Z,74.91
2017-10-12T01:09:36.149Z,76.55
2017-10-12T01:12:06.905Z,74.76
2017-10-12T01:14:37.464Z,74.49
2017-10-12T01:17:56.867Z,75.00
2017-10-12T01:20:28.551Z,74.26
2017-10-12T01:23:01.515Z,74.72
2017-10-12T01:25:34.531Z,74.62
2017-10-12T01:28:07.743Z,75.76
2017-10-12T01:30:41.140Z,74.69
2017-10-12T01:33:13.734Z,76.49
2017-10-12T01:35:47.430Z,76.90
2017-10-12T01:38:18.230Z,77.30
2017-10-12T01:40:49.723Z,78.09
2017-10-12T01:43:21.666Z,76.60
2017-10-12T01:45:52.534Z,76.17
2017-10-12T01:48:36.231Z,75.87
2017-10-12T01:51:07.275Z,75.82
2017-10-12T01:53:41.314Z,74.55
2017-10-12T01:56:15.765Z,77.40
2017-10-12T01:58:46.852Z,76.30
2017-10-12T02:01:18.570Z,75.90
2017-10-12T02:03:50.324Z,75.79
2017-10-12T02:06:21.743Z,75.38
2017-10-12T02:08:52.776Z,76.16
2017-10-12T02:11:25.815Z,76.93
2017-10-12T02:13:58.066Z,77.15
2017-10-12T02:16:31.148Z,77.62
2017-10-12T02:19:02.926Z,79.19
2017-10-12T02:21:34.751Z,78.41
2017-10-12T02:24:06.592Z,78.12
2017-10-12T02:26:38.827Z,78.28
2017-10-12T02:29:16.504Z,79.13
2017-10-12T02:31:49.179Z,78.11
2017-10-12T02:34:23.996Z,77.83
2017-10-12T02:36:56.796Z,78.36
2017-10-12T02:39:31.398Z,78.46
2017-10-12T02:42:05.375Z,77.14
2017-10-12T02:44:45.549Z,77.59
2017-10-12T02:47:16.794Z,77.79
2017-10-12T02:49:48.636Z,78.60
2017-10-12T02:52:23.984Z,78.64
2017-10-12T02:54:56.907Z,77.97
2017-10-12T02:57:27.398Z,77.98
2017-10-12T02:59:57.962Z,77.32
2017-10-12T03:02:31.738Z,78.50
2017-10-12T03:05:04.804Z,77.92
2017-10-12T03:07:35.859Z,75.90
2017-10-12T03:10:09.121Z,75.79
2017-10-12T03:12:42.145Z,75.63
2017-10-12T03:15:13.457Z,75.75
2017-10-12T03:17:47.429Z,76.26
2017-10-12T03:20:25.053Z,76.97
2017-10-12T03:22:58.508Z,77.36
2017-10-12T03:25:30.562Z,77.56
2017-10-12T03:28:09.172Z,78.23
2017-10-12T03:30:42.110Z,77.45
2017-10-12T03:33:24.344Z,78.35
2017-10-12T03:35:56.255Z,77.38
2017-10-12T03:38:30.967Z,76.48
2017-10-12T03:41:02.767Z,76.41
2017-10-12T03:43:34.000Z,77.36
2017-10-12T03:46:12.961Z,77.35
2017-10-12T03:48:46.186Z,75.76
2017-10-12T03:51:17.829Z,76.97
2017-10-12T03:53:49.231Z,76.44
2017-10-12T03:56:22.699Z,76.82
2017-10-12T03:58:59.985Z,76.33
2017-10-12T04:01:32.536Z,75.97
2017-10-12T04:04:16.774Z,76.69
2017-10-12T04:06:49.214Z,77.01
2017-10-12T04:09:21.796Z,76.84
2017-10-12T04:11:55.676Z,76.48
2017-10-12T04:14:28.712Z,75.79
2017-10-12T04:17:00.381Z,76.22
2017-10-12T04:19:33.002Z,78.98
2017-10-12T04:22:06.999Z,78.80
2017-10-12T04:24:39.927Z,79.62
2017-10-12T04:27:11.549Z,80.29
2017-10-12T16:45:16.983Z,63.91
2017-10-12T16:48:23.655Z,62.95
2017-10-12T16:51:29.342Z,63.57
2017-10-12T16:54:35.372Z,63.13
2017-10-12T16:57:40.746Z,63.20
2017-10-12T17:00:46.685Z,63.56
2017-10-12T17:03:54.548Z,63.18
2017-10-12T17:07:00.567Z,63.54
2017-10-12T17:10:06.138Z,62.80
2017-10-12T17:13:12.191Z,63.82
2017-10-12T17:16:20.086Z,64.31
2017-10-12T17:19:27.799Z,63.55
2017-10-12T17:22:34.547Z,63.77
2017-10-12T17:25:40.048Z,64.42
2017-10-12T17:28:46.613Z,64.60
2017-10-12T17:31:53.518Z,64.51
2017-10-12T17:37:59.285Z,66.44
2017-10-12T17:41:06.375Z,65.73
2017-10-12T17:44:12.418Z,65.11
2017-10-12T17:47:19.233Z,65.68
2017-10-12T17:50:25.194Z,66.82
2017-10-12T17:53:31.141Z,66.78
2017-10-12T17:56:37.984Z,64.75
2017-10-12T17:59:43.954Z,64.20
2017-10-12T18:02:49.598Z,64.28
2017-10-12T18:05:55.400Z,65.59
2017-10-12T18:09:01.354Z,64.99
2017-10-12T18:12:21.874Z,65.04
2017-10-12T18:15:12.606Z,66.21
2017-10-12T18:18:18.518Z,66.67
2017-10-12T18:21:24.563Z,66.35
2017-10-12T18:27:37.180Z,66.54
2017-10-12T18:30:48.209Z,67.18
2017-10-12T18:33:55.078Z,68.11
2017-10-12T18:37:02.195Z,67.20
2017-10-12T18:40:08.886Z,66.85
2017-10-12T18:43:15.833Z,68.93
2017-10-12T18:46:21.977Z,67.81
2017-10-12T18:49:27.145Z,67.38
2017-10-12T18:52:34.046Z,68.24
2017-10-12T18:55:39.992Z,67.11
2017-10-12T18:58:45.847Z,66.04
2017-10-12T19:09:20.503Z,66.51
2017-10-12T19:12:38.432Z,66.21
2017-10-12T19:15:53.120Z,66.66
2017-10-12T19:19:08.130Z,65.27
2017-10-12T19:22:19.109Z,65.11
2017-10-12T19:28:41.346Z,64.84
2017-10-12T19:31:52.330Z,64.32
2017-10-12T19:35:03.742Z,63.99
2017-10-12T19:38:15.215Z,63.85
2017-10-12T19:41:25.724Z,64.32
2017-10-12T19:44:36.497Z,64.59
2017-10-12T19:47:53.546Z,64.09
2017-10-12T19:54:26.091Z,65.65
2017-10-12T19:57:36.944Z,66.98
2017-10-12T20:00:47.056Z,65.85
2017-10-12T20:04:00.728Z,64.75
2017-10-12T20:07:11.375Z,65.72
2017-10-12T20:10:34.928Z,65.13
2017-10-12T20:16:57.247Z,65.01
2017-10-12T20:20:08.780Z,66.55
2017-10-12T20:23:21.098Z,67.39
2017-10-12T20:26:31.655Z,66.97
2017-10-12T20:29:43.467Z,66.38
2017-10-12T20:32:54.020Z,65.92
2017-10-12T20:36:15.070Z,65.88
2017-10-12T20:39:25.450Z,66.19
2017-10-12T20:42:40.840Z,66.89
2017-10-12T20:45:55.747Z,66.93
2017-10-12T20:49:06.425Z,67.04
2017-10-12T20:52:17.209Z,66.18
2017-10-12T20:55:31.327Z,67.60
2017-10-12T20:58:41.681Z,66.88
2017-10-12T21:01:52.324Z,66.31
2017-10-12T21:04:59.707Z,65.56
2017-10-12T21:08:09.347Z,66.40
2017-10-12T21:11:20.339Z,65.41
2017-10-12T21:14:31.048Z,65.02
2017-10-12T21:17:41.801Z,65.09
2017-10-12T21:20:52.378Z,66.29
2017-10-12T21:24:07.921Z,65.46
2017-10-12T21:27:17.970Z,65.09
2017-10-12T21:30:30.703Z,66.28
2017-10-12T21:33:43.514Z,66.57
2017-10-12T21:36:54.613Z,66.15
2017-10-12T21:40:05.107Z,66.46
2017-10-12T21:43:15.825Z,65.98
2017-10-12T21:46:26.615Z,65.35
2017-10-12T21:49:39.367Z,65.39
2017-10-12T21:52:50.858Z,64.87
2017-10-12T21:56:06.050Z,64.28
2017-10-12T21:59:20.361Z,64.38
2017-10-12T22:02:36.311Z,63.37
2017-10-12T22:05:47.586Z,63.35
2017-10-12T22:08:59.111Z,62.84
2017-10-12T22:12:09.965Z,63.78
2017-10-12T22:15:21.750Z,63.13
2017-10-12T22:18:33.337Z,63.40
2017-10-12T22:21:43.925Z,62.39
2017-10-12T22:24:56.460Z,61.80
2017-10-12T22:28:07.120Z,61.72
2017-10-12T22:31:29.453Z,61.53
2017-10-12T22:34:40.368Z,61.41
2017-10-12T22:37:52.099Z,62.13
2017-10-12T22:41:05.517Z,62.73
2017-10-12T22:44:19.236Z,63.48
2017-10-12T22:50:46.561Z,64.56
2017-10-12T22:53:58.522Z,63.73
2017-10-12T22:57:10.951Z,64.15
2017-10-12T23:00:21.609Z,64.58
2017-10-12T23:03:39.439Z,64.65
2017-10-12T23:07:06.171Z,64.96
2017-10-12T23:10:30.346Z,65.01
2017-10-12T23:13:41.111Z,64.21
2017-10-12T23:16:51.679Z,64.27
2017-10-12T23:20:03.212Z,63.81
2017-10-12T23:23:14.013Z,63.26
2017-10-12T23:26:24.961Z,63.13
2017-10-12T23:29:41.938Z,63.41
2017-10-12T23:32:55.206Z,64.92
2017-10-12T23:36:09.470Z,64.58
2017-10-12T23:39:23.057Z,63.94
2017-10-12T23:42:34.288Z,63.63
2017-10-12T23:45:44.729Z,62.91
2017-10-12T23:48:56.453Z,63.42
2017-10-12T23:52:07.038Z,62.91
2017-10-12T23:55:17.726Z,63.79
2017-10-12T23:58:34.643Z,64.04
